Time;durP1;ratioP1;P1;durP2;ratioP2;P2;SDS_P1;SDS_P2;PMS_P1;PMS_P2;Temp;Humidity;BMP_temperature;BMP_pressure;BME280_temperature;BME280_humidity;BME280_pressure;Samples;Min_cycle;Max_cycle;Signal;HPM_P1;HPM_P2
2023/10/16 00:00:32;;;;;;;;;;;;;;;7.26;48.79;101178.56;5001978;27;99492;-71
2023/10/16 00:02:59;;;;;;;;;;;;;;;7.24;48.95;101184.16;4986471;27;98973;-71
2023/10/16 00:05:32;;;;;;;;;;;;;;;7.23;48.91;101182.53;4980614;27;99258;-74
2023/10/16 00:08:08;;;;;;;;;;;;;;;7.21;49.07;101179.25;4995372;27;98485;-74
2023/10/16 00:10:36;;;;;;;;;;;;;;;7.19;48.93;101178.66;5015066;27;98914;-71
2023/10/16 00:13:05;;;;;;;;;;;;;;;7.19;49.18;101172.47;4966613;27;98189;-74
2023/10/16 00:15:40;;;;;;;;;;;;;;;7.16;49.00;101173.75;4971200;27;98068;-71
2023/10/16 00:18:13;;;;;;;;;;;;;;;7.12;48.88;101173.38;5002666;27;98175;-71
2023/10/16 00:20:41;;;;;;;;;;;;;;;7.08;48.90;101169.53;4988869;27;98256;-74
2023/10/16 00:23:13;;;;;;;;;;;;;;;7.05;48.41;101161.13;4988193;27;99549;-74
2023/10/16 00:25:40;;;;;;;;;;;;;;;7.04;49.02;101162.16;4997515;27;99801;-74
2023/10/16 00:28:09;;;;;;;;;;;;;;;7.05;48.97;101161.13;4997063;27;98061;-75
2023/10/16 00:30:37;;;;;;;;;;;;;;;7.04;48.99;101154.13;5002032;27;98345;-74
2023/10/16 00:33:10;;;;;;;;;;;;;;;7.03;48.93;101160.50;4984505;27;98357;-71
2023/10/16 00:35:37;;;;;;;;;;;;;;;7.02;48.88;101162.38;5003687;27;98906;-74
2023/10/16 00:38:05;;;;;;;;;;;;;;;7.02;48.98;101167.75;5005250;27;98192;-70
2023/10/16 00:40:38;;;;;;;;;;;;;;;7.01;48.87;101163.44;4985413;27;98957;-74
2023/10/16 00:43:28;;;;;;;;;;;;;;;7.01;48.87;101157.25;4973120;27;99448;-72
2023/10/16 00:45:59;;;;;;;;;;;;;;;7.00;49.03;101163.66;4985166;27;98068;-74
2023/10/16 00:48:27;;;;;;;;;;;;;;;6.99;49.15;101162.81;4999630;27;98139;-74
2023/10/16 00:50:54;;;;;;;;;;;;;;;6.97;49.06;101156.88;4967781;27;98307;-75
2023/10/16 00:53:27;;;;;;;;;;;;;;;6.98;49.15;101150.47;5012876;27;98525;-70
2023/10/16 00:55:55;;;;;;;;;;;;;;;6.98;48.80;101165.75;4979532;27;99551;-75
2023/10/16 00:58:22;;;;;;;;;;;;;;;6.95;49.00;101153.59;4982484;27;100470;-74
2023/10/16 01:00:49;;;;;;;;;;;;;;;6.95;48.88;101155.47;4984849;27;98176;-70
2023/10/16 01:03:17;;;;;;;;;;;;;;;6.94;48.91;101151.16;4972000;27;98622;-71
2023/10/16 01:05:49;;;;;;;;;;;;;;;6.93;48.66;101160.25;4997168;27;98124;-74
2023/10/16 01:08:17;;;;;;;;;;;;;;;6.92;48.83;101161.28;5000444;27;99492;-70
2023/10/16 01:10:48;;;;;;;;;;;;;;;6.91;48.89;101170.38;4969296;27;98612;-74
2023/10/16 01:13:16;;;;;;;;;;;;;;;6.90;48.88;101174.91;4972168;27;98198;-70
2023/10/16 01:15:53;;;;;;;;;;;;;;;6.88;49.20;101175.16;4983255;27;98518;-74
2023/10/16 01:18:23;;;;;;;;;;;;;;;6.86;48.84;101176.41;4967116;27;97924;-70
2023/10/16 01:20:51;;;;;;;;;;;;;;;6.84;49.04;101170.47;4970015;27;99549;-70
2023/10/16 01:23:23;;;;;;;;;;;;;;;6.82;49.11;101172.53;4966946;27;98127;-74
2023/10/16 01:25:51;;;;;;;;;;;;;;;6.81;48.79;101174.41;5003043;27;98193;-71
2023/10/16 01:28:19;;;;;;;;;;;;;;;6.79;49.10;101171.13;4990179;27;98472;-71
2023/10/16 01:30:47;;;;;;;;;;;;;;;6.79;49.06;101173.00;4999068;27;98980;-70
2023/10/16 01:33:23;;;;;;;;;;;;;;;6.78;48.97;101164.13;4984511;27;98307;-74
2023/10/16 01:35:50;;;;;;;;;;;;;;;6.78;49.16;101176.72;4983235;27;99398;-74
2023/10/16 01:38:20;;;;;;;;;;;;;;;6.76;49.03;101174.28;4984598;27;99530;-70
2023/10/16 01:41:09;;;;;;;;;;;;;;;6.75;49.02;101172.63;5001279;27;98059;-70
2023/10/16 01:43:43;;;;;;;;;;;;;;;6.73;48.92;101174.72;5001862;27;99096;-74
2023/10/16 01:46:11;;;;;;;;;;;;;;;6.71;48.96;101171.44;5002688;27;99952;-74
2023/10/16 01:48:39;;;;;;;;;;;;;;;6.68;49.04;101165.69;4970604;27;98504;-74
2023/10/16 01:51:06;;;;;;;;;;;;;;;6.68;48.98;101163.88;4989691;27;100084;-73
2023/10/16 01:53:36;;;;;;;;;;;;;;;6.67;49.00;101164.06;4991979;27;98436;-70
2023/10/16 01:56:12;;;;;;;;;;;;;;;6.65;48.80;101166.97;4991659;27;98075;-70
2023/10/16 01:58:44;;;;;;;;;;;;;;;6.63;49.04;101167.19;4989897;27;98440;-70
2023/10/16 02:01:11;;;;;;;;;;;;;;;6.62;49.13;101160.19;4989338;27;98434;-71
2023/10/16 02:03:48;;;;;;;;;;;;;;;6.61;49.05;101161.25;4973564;27;97963;-71
2023/10/16 02:06:15;;;;;;;;;;;;;;;6.60;49.04;101164.13;4983351;27;98808;-75
2023/10/16 02:08:44;;;;;;;;;;;;;;;6.59;48.87;101166.00;4984157;27;99401;-74
2023/10/16 02:11:11;;;;;;;;;;;;;;;6.58;48.95;101167.06;4988687;27;98517;-71
2023/10/16 02:13:41;;;;;;;;;;;;;;;6.56;49.20;101166.47;5013003;27;98048;-71
2023/10/16 02:16:12;;;;;;;;;;;;;;;6.55;48.61;101170.16;5018259;27;97967;-75
2023/10/16 02:18:41;;;;;;;;;;;;;;;6.57;48.90;101169.97;5007199;27;98070;-74
2023/10/16 02:21:12;;;;;;;;;;;;;;;6.55;48.81;101164.81;4976732;27;98221;-71
2023/10/16 02:23:48;;;;;;;;;;;;;;;6.52;49.26;101167.94;4996242;27;98408;-74
2023/10/16 02:26:18;;;;;;;;;;;;;;;6.52;49.21;101161.75;5006076;27;98320;-70
2023/10/16 02:28:53;;;;;;;;;;;;;;;6.52;49.10;101169.78;5019682;27;99441;-75
2023/10/16 02:31:21;;;;;;;;;;;;;;;6.51;49.30;101165.50;4985978;27;98210;-71
2023/10/16 02:33:55;;;;;;;;;;;;;;;6.51;49.06;101162.81;5002903;27;98392;-71
2023/10/16 02:36:23;;;;;;;;;;;;;;;6.50;49.32;101166.53;5003286;27;98098;-74
2023/10/16 02:38:55;;;;;;;;;;;;;;;6.48;49.15;101155.22;4984472;27;98325;-71
2023/10/16 02:41:23;;;;;;;;;;;;;;;6.47;49.05;101165.13;4993177;27;98362;-71
2023/10/16 02:43:51;;;;;;;;;;;;;;;6.44;49.02;101162.88;4969354;27;97912;-71
2023/10/16 02:46:21;;;;;;;;;;;;;;;6.44;49.19;101168.22;4999830;27;99648;-75
2023/10/16 02:48:48;;;;;;;;;;;;;;;6.44;49.35;101168.22;4991915;27;98264;-71
2023/10/16 02:51:18;;;;;;;;;;;;;;;6.44;48.88;101175.44;4973835;27;101503;-71
2023/10/16 02:53:48;;;;;;;;;;;;;;;6.43;49.48;101174.63;5006038;27;98325;-74
2023/10/16 02:56:17;;;;;;;;;;;;;;;6.41;49.11;101167.88;5000846;27;97911;-74
2023/10/16 02:58:43;;;;;;;;;;;;;;;6.41;49.20;101170.56;4984286;27;103890;-70
2023/10/16 03:01:15;;;;;;;;;;;;;;;6.40;48.98;101169.72;4981826;27;98420;-71
2023/10/16 03:03:45;;;;;;;;;;;;;;;6.40;49.35;101169.72;5001732;27;98297;-74
2023/10/16 03:06:13;;;;;;;;;;;;;;;6.38;49.40;101172.63;5004279;27;98453;-71
2023/10/16 03:08:47;;;;;;;;;;;;;;;6.38;49.06;101177.97;4989919;27;98140;-71
2023/10/16 03:11:14;;;;;;;;;;;;;;;6.39;49.38;101173.44;4972870;27;98926;-70
2023/10/16 03:13:43;;;;;;;;;;;;;;;6.38;49.39;101180.66;5001359;27;98309;-74
2023/10/16 03:16:16;;;;;;;;;;;;;;;6.37;49.22;101175.53;5000365;27;98074;-74
2023/10/16 03:18:43;;;;;;;;;;;;;;;6.35;49.07;101175.75;4975817;27;98318;-70
2023/10/16 03:23:46;;;;;;;;;;;;;;;6.34;49.10;101186.69;4973127;27;117085;-70
2023/10/16 03:26:25;;;;;;;;;;;;;;;6.33;49.19;101190.41;5003052;27;97878;-71
2023/10/16 03:28:53;;;;;;;;;;;;;;;6.31;48.70;101195.16;5015643;27;98250;-71
2023/10/16 03:31:23;;;;;;;;;;;;;;;6.28;49.17;101192.91;4973852;27;98597;-70
2023/10/16 03:33:50;;;;;;;;;;;;;;;6.24;48.92;101184.50;5000041;27;98178;-74
2023/10/16 03:36:18;;;;;;;;;;;;;;;6.21;48.97;101190.31;4993323;27;98005;-70
2023/10/16 03:38:45;;;;;;;;;;;;;;;6.19;49.26;101191.56;4987429;27;98138;-74
2023/10/16 03:43:56;;;;;;;;;;;;;;;6.13;49.19;101193.25;4988384;27;101575;-74
2023/10/16 03:46:29;;;;;;;;;;;;;;;6.09;49.46;101190.22;4986675;27;97852;-74
2023/10/16 03:48:55;;;;;;;;;;;;;;;6.07;49.00;101189.63;4975042;27;98091;-74
2023/10/16 03:51:22;;;;;;;;;;;;;;;6.06;48.92;101182.63;4989215;27;98198;-71
2023/10/16 03:53:52;;;;;;;;;;;;;;;6.04;49.22;101190.03;4986927;27;98017;-71
2023/10/16 03:56:20;;;;;;;;;;;;;;;6.03;49.44;101187.59;5005283;27;98789;-71
2023/10/16 03:58:47;;;;;;;;;;;;;;;6.01;49.49;101185.16;4978423;27;98294;-70
2023/10/16 04:01:18;;;;;;;;;;;;;;;6.00;49.25;101191.53;5003234;27;98384;-75
2023/10/16 04:03:50;;;;;;;;;;;;;;;5.99;49.43;101189.09;4983302;27;98066;-71
2023/10/16 04:06:20;;;;;;;;;;;;;;;5.96;49.32;101179.63;4985679;27;99279;-71
2023/10/16 04:08:47;;;;;;;;;;;;;;;5.95;49.01;101182.53;5001994;27;98181;-71
2023/10/16 04:11:15;;;;;;;;;;;;;;;5.94;49.32;101180.91;4985880;27;98336;-71
2023/10/16 04:13:49;;;;;;;;;;;;;;;5.92;48.96;101178.44;4970353;27;99129;-71
2023/10/16 04:16:36;;;;;;;;;;;;;;;5.90;49.13;101178.63;5003245;27;98351;-75
2023/10/16 04:21:54;;;;;;;;;;;;;;;5.89;49.31;101181.50;4990467;27;98388;-71
2023/10/16 04:29:35;;;;;;;;;;;;;;;5.88;49.40;101180.69;4999676;27;98066;-74
2023/10/16 04:32:19;;;;;;;;;;;;;;;5.91;48.94;101179.44;4998820;27;98336;-71
2023/10/16 04:34:55;;;;;;;;;;;;;;;5.89;49.03;101178.81;4981558;27;98797;-71
2023/10/16 04:37:40;;;;;;;;;;;;;;;5.87;49.26;101176.38;4988960;27;97839;-71
2023/10/16 04:53:11;;;;;;;;;;;;;;;5.84;49.46;101186.69;4987787;27;98653;-75
2023/10/16 04:55:53;;;;;;;;;;;;;;;5.81;49.07;101189.81;4988894;27;101095;-74
2023/10/16 06:14:14;;;;;;;;;;;;;;;6.31;49.15;101200.53;4975185;27;99098;-75
2023/10/16 06:16:47;;;;;;;;;;;;;;;6.36;49.09;101211.38;4949512;28;98255;-75
2023/10/16 06:19:17;;;;;;;;;;;;;;;6.39;49.03;101205.59;4951444;28;98232;-75
2023/10/16 06:22:06;;;;;;;;;;;;;;;6.42;48.94;101207.00;4934174;28;98557;-70
2023/10/16 06:24:36;;;;;;;;;;;;;;;6.44;49.10;101203.06;4944327;28;98255;-76
2023/10/16 06:27:09;;;;;;;;;;;;;;;6.48;49.04;101198.88;4950630;28;100738;-70
2023/10/16 06:29:58;;;;;;;;;;;;;;;6.51;49.33;101209.16;4971560;28;98404;-74
2023/10/16 06:32:35;;;;;;;;;;;;;;;6.55;48.95;101201.50;4982328;27;98655;-74
2023/10/16 06:35:07;;;;;;;;;;;;;;;6.58;49.05;101203.75;4980600;27;98169;-70
2023/10/16 06:37:35;;;;;;;;;;;;;;;6.60;48.95;101204.31;4952409;27;98378;-75
2023/10/16 06:40:04;;;;;;;;;;;;;;;6.64;48.96;101206.34;4964476;27;98097;-74
2023/10/16 06:42:31;;;;;;;;;;;;;;;6.70;48.86;101210.00;4950095;27;99280;-75
2023/10/16 06:45:06;;;;;;;;;;;;;;;6.75;48.66;101203.97;4938561;28;98148;-75
2023/10/16 06:47:36;;;;;;;;;;;;;;;6.80;48.78;101212.97;4933779;28;98979;-74
2023/10/16 06:50:33;;;;;;;;;;;;;;;6.88;48.91;101222.59;4966192;27;98414;-70
2023/10/16 06:52:55;;;;;;;;;;;;;;;6.96;48.78;101214.22;4975269;27;98186;-70
2023/10/16 06:55:22;;;;;;;;;;;;;;;7.05;48.86;101222.78;4944349;27;98218;-69
2023/10/16 06:57:49;;;;;;;;;;;;;;;7.10;48.80;101212.19;4950963;28;98165;-74
2023/10/16 07:00:26;;;;;;;;;;;;;;;7.14;48.79;101211.50;4963142;28;98122;-69
2023/10/16 07:02:58;;;;;;;;;;;;;;;7.23;48.70;101219.22;4937111;27;98379;-69
2023/10/16 07:05:42;;;;;;;;;;;;;;;7.33;48.59;101219.53;4943136;28;97979;-73
2023/10/16 07:08:16;;;;;;;;;;;;;;;7.40;48.66;101212.22;4963457;28;98655;-70
2023/10/16 07:10:49;;;;;;;;;;;;;;;7.56;48.54;101210.75;4966621;28;99647;-71
2023/10/16 07:13:28;;;;;;;;;;;;;;;7.69;48.85;101218.56;4957202;27;98018;-70
2023/10/16 07:16:03;;;;;;;;;;;;;;;7.81;48.59;101216.72;4950069;28;98369;-75
2023/10/16 07:18:35;;;;;;;;;;;;;;;7.99;48.42;101215.03;4969191;27;101061;-75
2023/10/16 07:23:35;;;;;;;;;;;;;;;8.41;48.36;101204.19;4984510;27;99682;-74
2023/10/16 07:26:02;;;;;;;;;;;;;;;8.40;47.91;101203.38;4965637;27;98563;-70
2023/10/16 07:28:29;;;;;;;;;;;;;;;8.42;48.22;101209.34;4945121;28;98303;-70
2023/10/16 07:31:05;;;;;;;;;;;;;;;8.55;48.34;101209.09;4953484;28;98834;-74
2023/10/16 07:33:33;;;;;;;;;;;;;;;8.64;48.37;101203.34;4983995;27;99551;-70
2023/10/16 07:36:01;;;;;;;;;;;;;;;8.83;47.82;101205.63;4949160;28;101407;-74
2023/10/16 07:38:28;;;;;;;;;;;;;;;8.99;47.50;101200.56;4964482;28;97967;-75
2023/10/16 07:41:01;;;;;;;;;;;;;;;9.03;47.72;101207.91;4946206;28;100856;-75
2023/10/16 07:43:32;;;;;;;;;;;;;;;9.32;47.57;101203.38;4953638;28;99943;-74
2023/10/16 07:48:44;;;;;;;;;;;;;;;10.00;46.84;101204.25;4965912;28;98642;-74
2023/10/16 07:51:17;;;;;;;;;;;;;;;11.27;45.43;101199.72;4949488;27;100124;-73
2023/10/16 07:53:43;;;;;;;;;;;;;;;11.68;45.37;101204.72;4953048;27;97949;-74
2023/10/16 07:58:57;;;;;;;;;;;;;;;12.26;45.48;101190.34;4942380;28;98629;-74
2023/10/16 08:01:32;;;;;;;;;;;;;;;12.63;45.52;101189.47;4977451;27;98062;-71
2023/10/16 08:04:01;;;;;;;;;;;;;;;13.83;44.89;101190.28;4944260;28;97938;-69
2023/10/16 08:06:29;;;;;;;;;;;;;;;15.28;43.33;101187.69;4963271;27;100362;-70
2023/10/16 08:11:44;;;;;;;;;;;;;;;17.66;41.64;101182.63;4973080;27;99029;-74
2023/10/16 08:14:13;;;;;;;;;;;;;;;18.42;41.29;101190.59;4952032;27;98190;-70
2023/10/16 08:16:39;;;;;;;;;;;;;;;17.67;43.03;101195.16;4969111;27;98505;-71
2023/10/16 08:19:15;;;;;;;;;;;;;;;18.29;42.34;101203.13;5003073;27;98713;-74
2023/10/16 08:21:45;;;;;;;;;;;;;;;16.61;44.53;101212.63;4971448;27;97966;-70
2023/10/16 08:24:13;;;;;;;;;;;;;;;16.99;44.13;101198.34;4983729;27;100863;-71
2023/10/16 08:26:45;;;;;;;;;;;;;;;16.24;45.14;101201.63;4989110;27;99503;-72
2023/10/16 08:31:47;;;;;;;;;;;;;;;20.06;42.23;101199.53;5013049;27;98725;-74
2023/10/16 08:34:21;;;;;;;;;;;;;;;21.28;41.36;101198.00;4987727;27;98398;-74
2023/10/16 08:36:53;;;;;;;;;;;;;;;21.45;41.55;101209.00;5000482;27;98250;-71
2023/10/16 08:39:24;;;;;;;;;;;;;;;20.95;42.44;101217.63;5000658;27;98151;-69
2023/10/16 08:42:34;;;;;;;;;;;;;;;20.88;42.58;101217.28;5011817;27;98214;-69
2023/10/16 08:44:43;;;;;;;;;;;;;;;21.13;42.61;101210.22;4988724;27;98951;-69
2023/10/16 08:47:16;;;;;;;;;;;;;;;21.24;42.61;101199.78;4965780;27;98817;-72
2023/10/16 08:49:51;;;;;;;;;;;;;;;21.31;42.95;101200.91;4985481;27;98709;-73
2023/10/16 08:52:22;;;;;;;;;;;;;;;20.55;44.42;101211.38;4987626;27;100402;-72
2023/10/16 08:57:20;;;;;;;;;;;;;;;21.87;42.83;101203.78;5000356;27;100909;-73
2023/10/16 08:59:50;;;;;;;;;;;;;;;22.51;42.21;101201.03;4996882;27;97954;-70
2023/10/16 09:02:20;;;;;;;;;;;;;;;22.95;42.79;101209.06;4972561;27;98579;-74
2023/10/16 09:04:52;;;;;;;;;;;;;;;24.07;42.27;101196.31;4999717;27;99515;-71
2023/10/16 09:07:25;;;;;;;;;;;;;;;25.96;40.47;101201.31;4998719;27;98835;-72
2023/10/16 09:09:55;;;;;;;;;;;;;;;24.55;42.22;101219.56;4989508;27;98162;-71
2023/10/16 09:12:26;;;;;;;;;;;;;;;23.71;42.82;101210.78;4984408;27;99986;-72
2023/10/16 09:14:52;;;;;;;;;;;;;;;22.36;44.06;101214.50;4970532;27;98977;-73
2023/10/16 09:17:19;;;;;;;;;;;;;;;21.29;44.87;101221.53;4978800;27;98475;-70
2023/10/16 09:19:50;;;;;;;;;;;;;;;20.30;45.55;101223.81;5004615;27;102823;-73
2023/10/16 09:22:20;;;;;;;;;;;;;;;19.57;45.79;101223.13;4970286;27;98742;-71
2023/10/16 09:24:52;;;;;;;;;;;;;;;19.34;45.56;101225.03;4974807;27;98206;-70
2023/10/16 09:27:30;;;;;;;;;;;;;;;18.69;45.91;101220.63;4990158;27;98721;-70
2023/10/16 09:30:00;;;;;;;;;;;;;;;17.97;46.53;101218.44;5021011;27;100000;-71
2023/10/16 09:32:34;;;;;;;;;;;;;;;17.34;46.74;101225.09;4999399;27;100632;-70
2023/10/16 09:35:14;;;;;;;;;;;;;;;17.41;46.34;101220.09;4968881;27;98229;-71
2023/10/16 09:37:40;;;;;;;;;;;;;;;17.32;46.24;101215.59;5005383;27;98585;-73
2023/10/16 09:40:19;;;;;;;;;;;;;;;17.90;45.21;101207.88;4988265;27;98334;-74
2023/10/16 09:45:41;;;;;;;;;;;;;;;18.38;44.59;101198.59;5017022;27;98508;-70
2023/10/16 09:48:20;;;;;;;;;;;;;;;17.74;45.55;101205.69;5006918;27;98496;-71
2023/10/16 09:50:47;;;;;;;;;;;;;;;16.98;46.22;101213.88;5014328;27;98108;-74
2023/10/16 09:53:14;;;;;;;;;;;;;;;19.08;43.45;101197.47;4987294;27;98786;-73
2023/10/16 09:55:44;;;;;;;;;;;;;;;19.44;43.23;101205.66;4991394;27;98273;-73
2023/10/16 09:58:12;;;;;;;;;;;;;;;18.14;44.98;101209.66;4993497;27;98342;-71
2023/10/16 10:00:46;;;;;;;;;;;;;;;25.86;36.75;101193.53;4989226;27;98047;-71
2023/10/16 10:03:12;;;;;;;;;;;;;;;28.66;34.89;101206.66;4990134;27;100013;-73
2023/10/16 10:05:55;;;;;;;;;;;;;;;31.17;33.57;101206.13;5002255;27;99882;-73
2023/10/16 10:08:39;;;;;;;;;;;;;;;33.72;32.78;101225.22;5014415;27;97888;-70
2023/10/16 10:11:19;;;;;;;;;;;;;;;28.93;37.68;101226.88;5002932;27;98687;-73
2023/10/16 10:14:09;;;;;;;;;;;;;;;25.39;41.37;101219.03;4990066;27;98475;-71
2023/10/16 10:16:35;;;;;;;;;;;;;;;25.14;40.87;101221.03;4989740;27;98460;-73
2023/10/16 10:19:10;;;;;;;;;;;;;;;22.71;43.45;101218.69;5002730;27;98870;-71
2023/10/16 10:21:46;;;;;;;;;;;;;;;27.02;38.19;101201.53;5010396;27;98413;-70
2023/10/16 10:24:15;;;;;;;;;;;;;;;26.09;39.40;101213.88;4991060;27;99144;-73
2023/10/16 10:27:02;;;;;;;;;;;;;;;29.61;36.13;101208.38;4986404;27;98507;-73
2023/10/16 10:29:32;;;;;;;;;;;;;;;33.69;33.04;101208.50;5000915;27;97918;-70
2023/10/16 10:32:13;;;;;;;;;;;;;;;28.76;38.36;101201.25;5011517;27;98246;-73
2023/10/16 10:34:39;;;;;;;;;;;;;;;31.99;35.33;101186.09;5008970;27;98346;-73
2023/10/16 10:37:46;;;;;;;;;;;;;;;28.30;39.01;101192.22;4998686;27;100048;-73
2023/10/16 10:40:22;;;;;;;;;;;;;;;26.17;40.92;101181.72;5001145;27;98430;-73
2023/10/16 10:42:53;;;;;;;;;;;;;;;24.46;42.14;101189.38;5017277;27;98426;-73
2023/10/16 10:45:36;;;;;;;;;;;;;;;24.83;41.31;101192.09;4986067;27;98845;-69
2023/10/16 10:48:10;;;;;;;;;;;;;;;23.96;41.77;101189.63;4999441;27;99073;-71
2023/10/16 10:50:40;;;;;;;;;;;;;;;23.39;41.91;101184.81;4983911;27;98400;-71
2023/10/16 10:53:15;;;;;;;;;;;;;;;21.87;43.69;101181.03;4985708;27;99521;-70
2023/10/16 10:56:07;;;;;;;;;;;;;;;21.48;43.49;101185.59;4985475;27;99222;-74
2023/10/16 10:58:37;;;;;;;;;;;;;;;20.66;44.15;101182.56;4988165;27;98455;-72
2023/10/16 11:03:51;;;;;;;;;;;;;;;20.33;43.88;101177.44;5000569;27;98013;-73
2023/10/16 11:06:40;;;;;;;;;;;;;;;20.04;44.08;101175.22;4961141;27;98214;-71
2023/10/16 11:09:12;;;;;;;;;;;;;;;19.77;44.06;101173.47;5000234;27;98210;-71
2023/10/16 11:11:44;;;;;;;;;;;;;;;19.36;44.32;101174.41;4972282;27;98270;-69
2023/10/16 11:14:13;;;;;;;;;;;;;;;18.93;44.83;101165.81;5001117;27;97935;-71
2023/10/16 11:16:48;;;;;;;;;;;;;;;19.13;44.33;101170.03;5004587;27;98691;-73
2023/10/16 11:19:29;;;;;;;;;;;;;;;18.49;44.81;101163.72;4999515;27;101231;-70
2023/10/16 11:22:00;;;;;;;;;;;;;;;18.27;44.91;101167.13;4973173;27;98473;-70
2023/10/16 11:24:26;;;;;;;;;;;;;;;17.90;45.12;101164.25;5016076;27;98462;-73
2023/10/16 11:26:57;;;;;;;;;;;;;;;17.71;45.02;101168.13;4983623;27;98521;-74
2023/10/16 11:29:23;;;;;;;;;;;;;;;17.68;44.94;101161.34;4963389;27;98433;-72
2023/10/16 11:31:54;;;;;;;;;;;;;;;17.48;44.90;101159.75;4998345;27;98150;-70
2023/10/16 11:34:24;;;;;;;;;;;;;;;17.47;45.03;101170.94;4986164;27;97946;-73
2023/10/16 11:36:57;;;;;;;;;;;;;;;17.34;44.95;101165.16;5000439;27;98629;-71
2023/10/16 11:39:23;;;;;;;;;;;;;;;17.46;44.59;101166.63;4984531;27;98171;-72
2023/10/16 11:41:49;;;;;;;;;;;;;;;17.29;44.74;101167.13;4996578;27;98873;-72
2023/10/16 11:44:16;;;;;;;;;;;;;;;16.89;45.20;101172.84;4987959;27;98759;-70
2023/10/16 11:46:46;;;;;;;;;;;;;;;16.51;45.50;101168.44;4985139;27;100703;-71
2023/10/16 11:51:54;;;;;;;;;;;;;;;16.20;45.55;101163.31;4981641;27;101444;-70
2023/10/16 11:54:23;;;;;;;;;;;;;;;16.24;45.31;101152.69;4990302;27;98304;-72
2023/10/16 11:56:55;;;;;;;;;;;;;;;15.94;45.43;101162.75;4971245;27;100790;-70
2023/10/16 11:59:25;;;;;;;;;;;;;;;15.75;45.69;101154.47;5012658;27;99009;-70
2023/10/16 12:01:59;;;;;;;;;;;;;;;15.61;45.74;101150.78;5000801;27;98217;-70
2023/10/16 12:04:30;;;;;;;;;;;;;;;15.51;45.88;101145.44;4973202;27;98254;-70
2023/10/16 12:07:00;;;;;;;;;;;;;;;15.38;45.62;101149.59;4985708;27;101454;-71
2023/10/16 12:09:34;;;;;;;;;;;;;;;15.29;45.79;101152.13;5012975;27;98914;-72
2023/10/16 12:12:01;;;;;;;;;;;;;;;15.21;45.91;101158.16;4973393;27;99210;-72
2023/10/16 12:14:39;;;;;;;;;;;;;;;15.26;45.66;101154.59;4988399;27;103528;-71
2023/10/16 12:17:11;;;;;;;;;;;;;;;15.12;45.89;101159.81;4986715;27;98042;-72
2023/10/16 12:19:40;;;;;;;;;;;;;;;15.14;45.68;101154.94;4999124;27;98307;-71
2023/10/16 12:22:08;;;;;;;;;;;;;;;15.12;45.65;101146.25;4987371;27;97930;-70
2023/10/16 12:24:35;;;;;;;;;;;;;;;15.11;45.53;101150.88;4992215;27;99196;-72
2023/10/16 12:27:02;;;;;;;;;;;;;;;14.97;45.75;101144.41;5009343;27;98238;-73
2023/10/16 12:29:31;;;;;;;;;;;;;;;14.81;45.94;101137.44;4981603;27;101164;-71
2023/10/16 12:32:03;;;;;;;;;;;;;;;14.71;45.58;101139.13;4987292;27;98202;-71
2023/10/16 12:34:33;;;;;;;;;;;;;;;14.56;46.02;101135.69;5003346;27;98537;-73
2023/10/16 12:37:22;;;;;;;;;;;;;;;14.37;46.02;101138.16;4986809;27;98257;-73
2023/10/16 12:39:52;;;;;;;;;;;;;;;14.11;46.48;101134.69;5002601;27;98539;-72
2023/10/16 12:42:19;;;;;;;;;;;;;;;14.00;46.14;101129.31;5011040;27;98384;-73
2023/10/16 12:44:54;;;;;;;;;;;;;;;13.92;46.37;101129.88;4962721;27;98527;-70
2023/10/16 12:47:22;;;;;;;;;;;;;;;13.85;46.07;101125.81;4999680;27;98580;-71
2023/10/16 12:49:53;;;;;;;;;;;;;;;13.84;46.31;101135.84;4970079;27;98846;-72
2023/10/16 12:52:29;;;;;;;;;;;;;;;13.80;46.29;101137.47;4999890;27;98104;-72
2023/10/16 12:55:01;;;;;;;;;;;;;;;13.83;45.96;101134.19;5002097;27;98223;-72
2023/10/16 12:57:32;;;;;;;;;;;;;;;13.96;45.92;101128.22;5001928;27;98154;-72
2023/10/16 13:00:14;;;;;;;;;;;;;;;14.20;45.63;101122.22;4995789;27;97946;-72
2023/10/16 13:02:43;;;;;;;;;;;;;;;14.24;45.51;101134.13;4985699;27;98056;-72
2023/10/16 13:05:13;;;;;;;;;;;;;;;14.24;45.98;101132.22;5001137;27;98342;-73
2023/10/16 13:07:47;;;;;;;;;;;;;;;14.14;45.75;101136.84;4987413;27;98736;-71
2023/10/16 13:10:28;;;;;;;;;;;;;;;14.02;46.02;101133.63;4987576;27;97964;-72
2023/10/16 13:13:04;;;;;;;;;;;;;;;14.05;45.65;101133.09;4980006;27;100043;-71
2023/10/16 13:15:36;;;;;;;;;;;;;;;13.95;46.08;101128.47;4983750;27;98707;-72
2023/10/16 13:18:03;;;;;;;;;;;;;;;13.93;46.18;101131.47;5001755;27;99946;-73
2023/10/16 13:20:37;;;;;;;;;;;;;;;13.97;45.89;101135.28;5000593;27;98754;-72
2023/10/16 13:23:05;;;;;;;;;;;;;;;14.03;45.94;101127.94;5005897;27;101274;-72
2023/10/16 13:25:37;;;;;;;;;;;;;;;14.08;46.12;101137.97;4957061;27;100020;-72
2023/10/16 13:28:10;;;;;;;;;;;;;;;14.14;45.86;101132.25;4972568;27;98471;-72
2023/10/16 13:30:36;;;;;;;;;;;;;;;14.20;45.93;101135.78;5016696;27;98557;-73
2023/10/16 13:33:09;;;;;;;;;;;;;;;14.20;46.03;101131.16;4970358;27;98714;-73
2023/10/16 13:35:44;;;;;;;;;;;;;;;14.16;45.87;101132.78;4986853;27;100266;-72
2023/10/16 13:38:14;;;;;;;;;;;;;;;14.06;46.15;101130.09;4980262;27;99476;-72
2023/10/16 13:40:46;;;;;;;;;;;;;;;13.92;46.16;101129.88;4980038;27;98488;-73
2023/10/16 13:43:17;;;;;;;;;;;;;;;13.81;46.49;101132.84;4999799;27;98499;-73
2023/10/16 13:45:45;;;;;;;;;;;;;;;13.68;46.73;101126.91;4983352;27;98429;-78
2023/10/16 13:48:12;;;;;;;;;;;;;;;13.57;46.48;101129.91;5001131;27;98202;-74
2023/10/16 13:50:40;;;;;;;;;;;;;;;13.44;46.92;101128.50;4999250;27;99911;-67
2023/10/16 13:53:08;;;;;;;;;;;;;;;13.35;46.80;101135.56;4968593;27;98509;-69
2023/10/16 13:55:35;;;;;;;;;;;;;;;13.29;46.92;101133.94;5004124;27;98306;-67
2023/10/16 13:58:02;;;;;;;;;;;;;;;13.21;46.85;101133.34;4992087;27;100414;-68
2023/10/16 14:00:28;;;;;;;;;;;;;;;13.16;46.69;101133.31;5003708;27;98880;-72
2023/10/16 14:03:09;;;;;;;;;;;;;;;13.12;46.96;101137.66;4971460;27;98235;-75
2023/10/16 14:05:46;;;;;;;;;;;;;;;13.05;47.07;101136.28;5001596;27;98942;-74
2023/10/16 14:08:17;;;;;;;;;;;;;;;12.96;46.90;101141.41;5004007;27;98672;-71
2023/10/16 14:10:49;;;;;;;;;;;;;;;12.88;47.13;101142.75;4986740;27;97993;-71
2023/10/16 14:13:21;;;;;;;;;;;;;;;12.82;47.27;101143.81;4985044;27;98720;-69
2023/10/16 14:15:48;;;;;;;;;;;;;;;12.78;47.05;101146.25;4989670;27;98056;-68
2023/10/16 14:18:21;;;;;;;;;;;;;;;12.75;46.98;101137.84;4988612;27;100280;-69
2023/10/16 14:20:48;;;;;;;;;;;;;;;12.75;47.20;101138.66;4973802;27;97980;-76
2023/10/16 14:23:15;;;;;;;;;;;;;;;12.74;47.00;101136.22;4989405;27;99198;-75
2023/10/16 14:25:48;;;;;;;;;;;;;;;12.71;46.94;101145.66;4988141;27;100107;-68
2023/10/16 14:31:01;;;;;;;;;;;;;;;12.67;46.97;101132.94;5013492;27;98318;-75
2023/10/16 14:33:28;;;;;;;;;;;;;;;12.67;46.85;101130.25;4971181;27;98364;-68
2023/10/16 14:35:58;;;;;;;;;;;;;;;12.64;46.96;101131.56;5020346;27;98353;-66
2023/10/16 14:38:25;;;;;;;;;;;;;;;12.61;46.85;101126.69;4980189;27;105964;-69
2023/10/16 14:41:39;;;;;;;;;;;;;;;12.61;46.83;101128.59;4974531;27;98015;-66
2023/10/16 14:43:39;;;;;;;;;;;;;;;12.58;47.12;101126.44;5015276;27;98119;-66
2023/10/16 14:46:12;;;;;;;;;;;;;;;12.56;46.88;101132.09;4982748;27;98336;-66
2023/10/16 14:48:38;;;;;;;;;;;;;;;12.57;46.84;101124.78;5001203;27;98219;-77
2023/10/16 14:51:05;;;;;;;;;;;;;;;12.57;46.88;101132.91;5007369;27;99724;-76
2023/10/16 14:53:31;;;;;;;;;;;;;;;12.55;46.90;101133.16;4970695;27;98553;-75
2023/10/16 14:55:58;;;;;;;;;;;;;;;12.53;46.84;101128.00;4992880;27;99531;-65
2023/10/16 14:58:24;;;;;;;;;;;;;;;12.54;46.89;101128.84;4976495;27;98738;-65
2023/10/16 15:00:50;;;;;;;;;;;;;;;12.57;46.92;101138.31;5001351;27;97971;-65
2023/10/16 15:03:20;;;;;;;;;;;;;;;12.60;46.94;101133.19;5000149;27;98178;-66
2023/10/16 15:05:49;;;;;;;;;;;;;;;12.65;46.76;101133.19;5003702;27;97940;-73
2023/10/16 15:08:15;;;;;;;;;;;;;;;12.70;47.02;101133.22;4984209;27;98806;-66
2023/10/16 15:10:45;;;;;;;;;;;;;;;12.75;46.84;101127.03;5024730;27;97983;-76